sensor_id;sensor_type;location;lat;lon;timestamp;temperature;humidity
71297;SHT31;59082;50.658;4.608;2023-02-26T06:28:17;-2.58;99.99
71297;SHT31;59082;50.658;4.608;2023-02-26T06:30:43;-2.73;99.99
71297;SHT31;59082;50.658;4.608;2023-02-26T06:33:08;-2.70;99.99
71297;SHT31;59082;50.658;4.608;2023-02-26T06:35:34;-2.76;99.99
71297;SHT31;59082;50.658;4.608;2023-02-26T06:38:00;-2.76;99.99
71297;SHT31;59082;50.658;4.608;2023-02-26T06:40:25;-2.87;99.99
71297;SHT31;59082;50.658;4.608;2023-02-26T06:42:51;-2.85;99.99
71297;SHT31;59082;50.658;4.608;2023-02-26T06:45:16;-2.86;99.99
71297;SHT31;59082;50.658;4.608;2023-02-26T06:47:42;-2.86;99.99
71297;SHT31;59082;50.658;4.608;2023-02-26T06:50:09;-2.79;99.99
71297;SHT31;59082;50.658;4.608;2023-02-26T06:52:34;-2.77;99.99
71297;SHT31;59082;50.658;4.608;2023-02-26T06:55:01;-2.66;99.99
71297;SHT31;59082;50.658;4.608;2023-02-26T06:57:26;-2.69;99.99
71297;SHT31;59082;50.658;4.608;2023-02-26T06:59:53;-2.57;99.99
71297;SHT31;59082;50.658;4.608;2023-02-26T07:02:20;-2.49;99.99
71297;SHT31;59082;50.658;4.608;2023-02-26T07:04:46;-2.44;99.99
71297;SHT31;59082;50.658;4.608;2023-02-26T07:07:15;-2.45;99.99
71297;SHT31;59082;50.658;4.608;2023-02-26T07:09:42;-2.38;99.99
71297;SHT31;59082;50.658;4.608;2023-02-26T07:12:08;-2.41;99.99
71297;SHT31;59082;50.658;4.608;2023-02-26T07:14:34;-2.18;99.99
71297;SHT31;59082;50.658;4.608;2023-02-26T07:17:01;-2.15;99.35
71297;SHT31;59082;50.658;4.608;2023-02-26T07:19:26;-2.09;99.48
71297;SHT31;59082;50.658;4.608;2023-02-26T07:21:52;-2.03;99.12
71297;SHT31;59082;50.658;4.608;2023-02-26T07:24:20;-1.76;98.57
71297;SHT31;59082;50.658;4.608;2023-02-26T07:26:45;-1.80;98.21
71297;SHT31;59082;50.658;4.608;2023-02-26T07:29:11;-1.76;98.32
71297;SHT31;59082;50.658;4.608;2023-02-26T07:31:37;-1.66;97.90
71297;SHT31;59082;50.658;4.608;2023-02-26T07:34:02;-1.27;96.82
71297;SHT31;59082;50.658;4.608;2023-02-26T07:36:28;-1.20;96.11
71297;SHT31;59082;50.658;4.608;2023-02-26T07:38:54;-1.10;95.75
71297;SHT31;59082;50.658;4.608;2023-02-26T07:41:19;-1.01;95.55
71297;SHT31;59082;50.658;4.608;2023-02-26T07:43:45;-0.94;95.61
71297;SHT31;59082;50.658;4.608;2023-02-26T07:46:11;-0.62;94.77
71297;SHT31;59082;50.658;4.608;2023-02-26T07:48:37;0.21;93.13
71297;SHT31;59082;50.658;4.608;2023-02-26T07:51:03;1.27;90.38
71297;SHT31;59082;50.658;4.608;2023-02-26T07:53:29;1.95;88.14
71297;SHT31;59082;50.658;4.608;2023-02-26T07:55:54;1.76;87.05
71297;SHT31;59082;50.658;4.608;2023-02-26T07:58:20;1.68;87.58
71297;SHT31;59082;50.658;4.608;2023-02-26T08:00:46;2.13;85.98
71297;SHT31;59082;50.658;4.608;2023-02-26T08:03:12;1.96;86.00
71297;SHT31;59082;50.658;4.608;2023-02-26T08:05:37;2.47;87.43
71297;SHT31;59082;50.658;4.608;2023-02-26T08:08:03;3.10;83.03
71297;SHT31;59082;50.658;4.608;2023-02-26T08:10:31;2.72;83.98
71297;SHT31;59082;50.658;4.608;2023-02-26T08:12:56;2.27;85.35
71297;SHT31;59082;50.658;4.608;2023-02-26T08:15:22;2.03;86.14
71297;SHT31;59082;50.658;4.608;2023-02-26T08:17:51;2.87;85.25
71297;SHT31;59082;50.658;4.608;2023-02-26T08:20:17;4.05;80.75
71297;SHT31;59082;50.658;4.608;2023-02-26T08:22:43;3.60;81.56
71297;SHT31;59082;50.658;4.608;2023-02-26T08:25:09;3.86;81.83
71297;SHT31;59082;50.658;4.608;2023-02-26T08:27:34;4.98;78.74
71297;SHT31;59082;50.658;4.608;2023-02-26T08:30:00;6.40;76.83
71297;SHT31;59082;50.658;4.608;2023-02-26T08:32:25;7.90;72.88
71297;SHT31;59082;50.658;4.608;2023-02-26T08:34:52;8.06;70.28
71297;SHT31;59082;50.658;4.608;2023-02-26T08:37:19;9.94;68.15
71297;SHT31;59082;50.658;4.608;2023-02-26T08:39:47;7.18;71.15
71297;SHT31;59082;50.658;4.608;2023-02-26T08:42:12;7.15;72.14
71297;SHT31;59082;50.658;4.608;2023-02-26T08:44:41;7.73;70.99
71297;SHT31;59082;50.658;4.608;2023-02-26T08:47:06;9.04;70.53
71297;SHT31;59082;50.658;4.608;2023-02-26T08:49:32;9.83;65.18
71297;SHT31;59082;50.658;4.608;2023-02-26T08:51:58;12.06;64.30
71297;SHT31;59082;50.658;4.608;2023-02-26T08:54:24;12.75;60.60
71297;SHT31;59082;50.658;4.608;2023-02-26T08:56:49;14.51;60.47
71297;SHT31;59082;50.658;4.608;2023-02-26T08:59:15;14.84;57.90
71297;SHT31;59082;50.658;4.608;2023-02-26T09:01:41;15.32;55.85
71297;SHT31;59082;50.658;4.608;2023-02-26T09:04:06;15.21;56.56
71297;SHT31;59082;50.658;4.608;2023-02-26T09:06:32;14.59;56.20
71297;SHT31;59082;50.658;4.608;2023-02-26T09:08:57;17.76;53.01
71297;SHT31;59082;50.658;4.608;2023-02-26T09:11:23;16.18;52.82
71297;SHT31;59082;50.658;4.608;2023-02-26T09:13:49;17.30;53.19
71297;SHT31;59082;50.658;4.608;2023-02-26T09:16:15;17.79;51.44
71297;SHT31;59082;50.658;4.608;2023-02-26T09:18:41;19.51;50.36
71297;SHT31;59082;50.658;4.608;2023-02-26T09:21:06;16.94;50.75
71297;SHT31;59082;50.658;4.608;2023-02-26T09:23:32;17.80;50.72
71297;SHT31;59082;50.658;4.608;2023-02-26T09:25:57;17.94;50.31
71297;SHT31;59082;50.658;4.608;2023-02-26T09:28:25;13.67;52.23
71297;SHT31;59082;50.658;4.608;2023-02-26T09:30:54;12.31;51.45
71297;SHT31;59082;50.658;4.608;2023-02-26T09:33:22;14.63;57.94
71297;SHT31;59082;50.658;4.608;2023-02-26T09:35:49;15.05;55.49
71297;SHT31;59082;50.658;4.608;2023-02-26T09:38:15;17.53;51.77
71297;SHT31;59082;50.658;4.608;2023-02-26T09:40:59;16.96;51.02
71297;SHT31;59082;50.658;4.608;2023-02-26T09:44:26;17.80;47.80
71297;SHT31;59082;50.658;4.608;2023-02-26T09:47:02;19.67;48.06
71297;SHT31;59082;50.658;4.608;2023-02-26T09:49:42;19.61;46.64
71297;SHT31;59082;50.658;4.608;2023-02-26T09:52:24;20.53;46.98
71297;SHT31;59082;50.658;4.608;2023-02-26T09:54:54;18.62;47.68
71297;SHT31;59082;50.658;4.608;2023-02-26T09:57:32;19.55;48.23
71297;SHT31;59082;50.658;4.608;2023-02-26T09:59:59;20.34;45.90
71297;SHT31;59082;50.658;4.608;2023-02-26T10:05:03;21.81;45.50
71297;SHT31;59082;50.658;4.608;2023-02-26T10:07:40;22.02;44.45
71297;SHT31;59082;50.658;4.608;2023-02-26T10:12:40;19.57;45.45
71297;SHT31;59082;50.658;4.608;2023-02-26T10:17:46;22.04;44.50
71297;SHT31;59082;50.658;4.608;2023-02-26T10:25:19;11.50;57.24
71297;SHT31;59082;50.658;4.608;2023-02-26T10:30:48;10.44;58.98
71297;SHT31;59082;50.658;4.608;2023-02-26T10:33:44;9.95;58.87
71297;SHT31;59082;50.658;4.608;2023-02-26T10:38:48;22.82;44.85
71297;SHT31;59082;50.658;4.608;2023-02-26T10:41:20;25.98;40.18
71297;SHT31;59082;50.658;4.608;2023-02-26T10:44:15;27.49;39.79
71297;SHT31;59082;50.658;4.608;2023-02-26T10:46:49;23.70;39.54
71297;SHT31;59082;50.658;4.608;2023-02-26T10:49:42;18.82;43.90
71297;SHT31;59082;50.658;4.608;2023-02-26T10:52:19;18.37;46.82
71297;SHT31;59082;50.658;4.608;2023-02-26T10:55:14;14.05;48.22
71297;SHT31;59082;50.658;4.608;2023-02-26T10:57:47;12.62;51.27
71297;SHT31;59082;50.658;4.608;2023-02-26T11:00:19;9.55;57.80
71297;SHT31;59082;50.658;4.608;2023-02-26T11:02:47;10.27;57.57
71297;SHT31;59082;50.658;4.608;2023-02-26T11:05:20;11.17;51.91
71297;SHT31;59082;50.658;4.608;2023-02-26T11:07:50;17.06;48.10
71297;SHT31;59082;50.658;4.608;2023-02-26T11:10:19;18.33;44.07
71297;SHT31;59082;50.658;4.608;2023-02-26T11:12:46;10.73;54.10
71297;SHT31;59082;50.658;4.608;2023-02-26T11:15:16;8.77;58.04
71297;SHT31;59082;50.658;4.608;2023-02-26T11:17:45;7.39;60.32
71297;SHT31;59082;50.658;4.608;2023-02-26T11:20:23;10.68;52.98
71297;SHT31;59082;50.658;4.608;2023-02-26T11:22:53;18.55;48.91
71297;SHT31;59082;50.658;4.608;2023-02-26T11:25:23;24.99;42.00
71297;SHT31;59082;50.658;4.608;2023-02-26T11:28:00;27.29;39.73
71297;SHT31;59082;50.658;4.608;2023-02-26T11:30:29;29.18;38.03
71297;SHT31;59082;50.658;4.608;2023-02-26T11:32:58;28.45;37.72
71297;SHT31;59082;50.658;4.608;2023-02-26T11:35:28;31.60;35.79
71297;SHT31;59082;50.658;4.608;2023-02-26T11:37:58;31.11;35.72
71297;SHT31;59082;50.658;4.608;2023-02-26T11:40:34;28.41;36.87
71297;SHT31;59082;50.658;4.608;2023-02-26T11:43:07;30.89;34.99
71297;SHT31;59082;50.658;4.608;2023-02-26T11:45:36;30.31;35.76
71297;SHT31;59082;50.658;4.608;2023-02-26T11:48:05;30.58;35.87
71297;SHT31;59082;50.658;4.608;2023-02-26T11:50:40;32.84;34.95
71297;SHT31;59082;50.658;4.608;2023-02-26T11:53:15;32.18;35.07
71297;SHT31;59082;50.658;4.608;2023-02-26T11:55:44;30.20;35.34
71297;SHT31;59082;50.658;4.608;2023-02-26T11:58:23;31.05;36.09
71297;SHT31;59082;50.658;4.608;2023-02-26T12:00:53;26.46;36.87
71297;SHT31;59082;50.658;4.608;2023-02-26T12:03:22;18.73;41.91
71297;SHT31;59082;50.658;4.608;2023-02-26T12:05:49;12.21;51.69
71297;SHT31;59082;50.658;4.608;2023-02-26T12:17:01;20.99;39.97
71297;SHT31;59082;50.658;4.608;2023-02-26T12:27:49;14.02;48.37
71297;SHT31;59082;50.658;4.608;2023-02-26T12:30:39;12.14;51.89
71297;SHT31;59082;50.658;4.608;2023-02-26T12:36:19;11.79;52.01
71297;SHT31;59082;50.658;4.608;2023-02-26T12:44:27;11.51;50.51
71297;SHT31;59082;50.658;4.608;2023-02-26T12:50:28;12.26;52.38
71297;SHT31;59082;50.658;4.608;2023-02-26T12:53:44;10.45;51.96
71297;SHT31;59082;50.658;4.608;2023-02-26T13:03:51;8.96;57.23
71297;SHT31;59082;50.658;4.608;2023-02-26T13:14:26;10.25;52.47
71297;SHT31;59082;50.658;4.608;2023-02-26T13:19:57;8.36;57.39
71297;SHT31;59082;50.658;4.608;2023-02-26T13:22:34;7.88;57.11
71297;SHT31;59082;50.658;4.608;2023-02-26T13:25:05;6.60;59.87
71297;SHT31;59082;50.658;4.608;2023-02-26T13:27:38;6.08;61.41
71297;SHT31;59082;50.658;4.608;2023-02-26T13:32:36;6.09;61.93
71297;SHT31;59082;50.658;4.608;2023-02-26T13:35:06;6.73;61.09
71297;SHT31;59082;50.658;4.608;2023-02-26T13:37:37;7.49;59.64
71297;SHT31;59082;50.658;4.608;2023-02-26T13:48:07;7.25;59.57
71297;SHT31;59082;50.658;4.608;2023-02-26T13:50:49;7.52;58.77
71297;SHT31;59082;50.658;4.608;2023-02-26T13:55:53;7.20;59.51
71297;SHT31;59082;50.658;4.608;2023-02-26T14:01:14;9.79;54.31
71297;SHT31;59082;50.658;4.608;2023-02-26T14:09:28;8.76;56.47
71297;SHT31;59082;50.658;4.608;2023-02-26T14:16:56;7.83;59.08
71297;SHT31;59082;50.658;4.608;2023-02-26T14:19:44;8.81;55.58
71297;SHT31;59082;50.658;4.608;2023-02-26T14:22:35;9.39;55.65
71297;SHT31;59082;50.658;4.608;2023-02-26T14:25:17;7.97;57.39
71297;SHT31;59082;50.658;4.608;2023-02-26T14:27:44;6.94;59.56
71297;SHT31;59082;50.658;4.608;2023-02-26T14:30:15;5.87;60.72
71297;SHT31;59082;50.658;4.608;2023-02-26T14:33:06;6.05;61.77
71297;SHT31;59082;50.658;4.608;2023-02-26T14:35:41;5.94;63.04
71297;SHT31;59082;50.658;4.608;2023-02-26T14:38:15;5.95;62.82
71297;SHT31;59082;50.658;4.608;2023-02-26T14:40:49;5.63;62.98
71297;SHT31;59082;50.658;4.608;2023-02-26T14:43:24;5.15;62.68
71297;SHT31;59082;50.658;4.608;2023-02-26T14:45:53;5.58;63.37
71297;SHT31;59082;50.658;4.608;2023-02-26T14:48:21;6.99;63.18
71297;SHT31;59082;50.658;4.608;2023-02-26T14:51:21;6.11;62.49
71297;SHT31;59082;50.658;4.608;2023-02-26T15:04:17;5.77;62.81
71297;SHT31;59082;50.658;4.608;2023-02-26T15:18:03;5.99;60.79
71297;SHT31;59082;50.658;4.608;2023-02-26T15:20:51;6.88;60.56
71297;SHT31;59082;50.658;4.608;2023-02-26T15:25:59;5.53;61.58
71297;SHT31;59082;50.658;4.608;2023-02-26T15:28:27;5.22;62.22
71297;SHT31;59082;50.658;4.608;2023-02-26T15:30:54;5.67;61.84
71297;SHT31;59082;50.658;4.608;2023-02-26T15:33:23;5.64;61.31
71297;SHT31;59082;50.658;4.608;2023-02-26T15:35:49;4.72;63.00
71297;SHT31;59082;50.658;4.608;2023-02-26T15:38:16;4.60;63.67
71297;SHT31;59082;50.658;4.608;2023-02-26T15:40:43;4.17;63.90
71297;SHT31;59082;50.658;4.608;2023-02-26T15:43:13;3.93;64.83
71297;SHT31;59082;50.658;4.608;2023-02-26T15:45:45;3.85;65.49
71297;SHT31;59082;50.658;4.608;2023-02-26T15:48:18;3.85;66.45
71297;SHT31;59082;50.658;4.608;2023-02-26T15:50:47;3.81;66.86
71297;SHT31;59082;50.658;4.608;2023-02-26T15:53:30;4.12;66.42
71297;SHT31;59082;50.658;4.608;2023-02-26T15:55:58;4.40;65.89
71297;SHT31;59082;50.658;4.608;2023-02-26T15:58:45;4.28;66.16
71297;SHT31;59082;50.658;4.608;2023-02-26T16:01:23;4.49;65.99
71297;SHT31;59082;50.658;4.608;2023-02-26T16:03:51;4.01;66.31
71297;SHT31;59082;50.658;4.608;2023-02-26T16:06:26;4.02;66.87
71297;SHT31;59082;50.658;4.608;2023-02-26T16:08:53;3.64;67.17
71297;SHT31;59082;50.658;4.608;2023-02-26T16:11:19;3.55;68.22
71297;SHT31;59082;50.658;4.608;2023-02-26T16:13:48;3.82;67.59
71297;SHT31;59082;50.658;4.608;2023-02-26T16:16:25;4.33;66.49
71297;SHT31;59082;50.658;4.608;2023-02-26T16:18:53;4.53;65.25
71297;SHT31;59082;50.658;4.608;2023-02-26T16:21:35;4.77;64.38
71297;SHT31;59082;50.658;4.608;2023-02-26T16:24:04;4.98;63.96
71297;SHT31;59082;50.658;4.608;2023-02-26T16:29:00;3.98;65.44
71297;SHT31;59082;50.658;4.608;2023-02-26T16:31:26;3.68;66.93
71297;SHT31;59082;50.658;4.608;2023-02-26T16:33:56;3.41;66.97
71297;SHT31;59082;50.658;4.608;2023-02-26T16:36:25;3.96;66.77
71297;SHT31;59082;50.658;4.608;2023-02-26T16:41:37;4.68;65.87
71297;SHT31;59082;50.658;4.608;2023-02-26T16:44:43;4.72;65.73
71297;SHT31;59082;50.658;4.608;2023-02-26T16:46:50;4.34;66.02
71297;SHT31;59082;50.658;4.608;2023-02-26T16:49:23;4.28;66.66
71297;SHT31;59082;50.658;4.608;2023-02-26T16:51:49;3.77;67.50
71297;SHT31;59082;50.658;4.608;2023-02-26T16:54:35;3.40;68.27
71297;SHT31;59082;50.658;4.608;2023-02-26T16:57:06;2.98;69.29
71297;SHT31;59082;50.658;4.608;2023-02-26T16:59:35;2.66;70.52
71297;SHT31;59082;50.658;4.608;2023-02-26T17:02:17;2.50;71.00
71297;SHT31;59082;50.658;4.608;2023-02-26T17:04:48;2.16;72.05
71297;SHT31;59082;50.658;4.608;2023-02-26T17:07:24;1.91;72.80
71297;SHT31;59082;50.658;4.608;2023-02-26T17:09:51;1.69;73.56
71297;SHT31;59082;50.658;4.608;2023-02-26T17:15:16;1.47;74.35
71297;SHT31;59082;50.658;4.608;2023-02-26T17:17:42;1.37;74.81
71297;SHT31;59082;50.658;4.608;2023-02-26T17:20:09;1.24;75.06
71297;SHT31;59082;50.658;4.608;2023-02-26T17:22:34;1.17;75.53
71297;SHT31;59082;50.658;4.608;2023-02-26T17:25:00;1.10;75.78
71297;SHT31;59082;50.658;4.608;2023-02-26T17:27:32;0.83;76.71
71297;SHT31;59082;50.658;4.608;2023-02-26T17:30:00;0.68;76.82
71297;SHT31;59082;50.658;4.608;2023-02-26T17:32:28;0.52;77.48
71297;SHT31;59082;50.658;4.608;2023-02-26T17:34:56;0.61;77.97
71297;SHT31;59082;50.658;4.608;2023-02-26T17:37:24;0.55;77.62
71297;SHT31;59082;50.658;4.608;2023-02-26T17:39:53;0.44;78.29
71297;SHT31;59082;50.658;4.608;2023-02-26T17:42:22;0.59;78.28
71297;SHT31;59082;50.658;4.608;2023-02-26T17:44:51;0.37;78.59
71297;SHT31;59082;50.658;4.608;2023-02-26T17:47:21;0.18;79.77
71297;SHT31;59082;50.658;4.608;2023-02-26T17:49:48;0.14;79.79
71297;SHT31;59082;50.658;4.608;2023-02-26T17:52:15;0.01;80.41
71297;SHT31;59082;50.658;4.608;2023-02-26T17:54:46;0.06;80.46
71297;SHT31;59082;50.658;4.608;2023-02-26T17:57:17;0.09;80.28
71297;SHT31;59082;50.658;4.608;2023-02-26T17:59:44;0.14;80.21
71297;SHT31;59082;50.658;4.608;2023-02-26T18:02:21;0.13;79.94
71297;SHT31;59082;50.658;4.608;2023-02-26T18:04:47;0.11;80.04
71297;SHT31;59082;50.658;4.608;2023-02-26T18:07:15;0.03;80.30
71297;SHT31;59082;50.658;4.608;2023-02-26T18:09:42;-0.04;80.86
71297;SHT31;59082;50.658;4.608;2023-02-26T18:12:16;-0.10;81.10
71297;SHT31;59082;50.658;4.608;2023-02-26T18:14:42;-0.03;80.74
71297;SHT31;59082;50.658;4.608;2023-02-26T18:17:18;-0.15;81.49
71297;SHT31;59082;50.658;4.608;2023-02-26T18:19:45;-0.10;81.44
71297;SHT31;59082;50.658;4.608;2023-02-26T18:22:15;-0.04;81.12
71297;SHT31;59082;50.658;4.608;2023-02-26T18:24:41;-0.25;81.78
71297;SHT31;59082;50.658;4.608;2023-02-26T18:27:15;-0.15;81.50
71297;SHT31;59082;50.658;4.608;2023-02-26T18:29:41;-0.29;82.51
71297;SHT31;59082;50.658;4.608;2023-02-26T18:32:12;-0.38;83.07
71297;SHT31;59082;50.658;4.608;2023-02-26T18:34:37;-0.32;82.75
71297;SHT31;59082;50.658;4.608;2023-02-26T18:37:03;-0.32;82.96
71297;SHT31;59082;50.658;4.608;2023-02-26T18:39:28;-0.39;82.67
71297;SHT31;59082;50.658;4.608;2023-02-26T18:41:56;-0.54;82.92
71297;SHT31;59082;50.658;4.608;2023-02-26T18:44:22;-0.46;83.03
71297;SHT31;59082;50.658;4.608;2023-02-26T18:46:48;-0.51;82.78
71297;SHT31;59082;50.658;4.608;2023-02-26T18:49:23;-0.68;83.58
71297;SHT31;59082;50.658;4.608;2023-02-26T18:51:49;-0.56;83.99
71297;SHT31;59082;50.658;4.608;2023-02-26T18:54:14;-0.66;83.81
71297;SHT31;59082;50.658;4.608;2023-02-26T18:56:40;-0.70;84.12
71297;SHT31;59082;50.658;4.608;2023-02-26T18:59:05;-0.76;84.32
71297;SHT31;59082;50.658;4.608;2023-02-26T19:01:31;-0.79;84.51
71297;SHT31;59082;50.658;4.608;2023-02-26T19:03:57;-0.68;84.38
71297;SHT31;59082;50.658;4.608;2023-02-26T19:06:22;-0.66;84.27
71297;SHT31;59082;50.658;4.608;2023-02-26T19:08:48;-0.93;84.89
71297;SHT31;59082;50.658;4.608;2023-02-26T19:11:14;-0.79;85.45
71297;SHT31;59082;50.658;4.608;2023-02-26T19:13:39;-0.83;84.71
71297;SHT31;59082;50.658;4.608;2023-02-26T19:16:05;-0.87;85.66
71297;SHT31;59082;50.658;4.608;2023-02-26T19:18:31;-0.75;85.33
71297;SHT31;59082;50.658;4.608;2023-02-26T19:20:56;-0.68;85.44
71297;SHT31;59082;50.658;4.608;2023-02-26T19:23:22;-0.79;85.20
71297;SHT31;59082;50.658;4.608;2023-02-26T19:25:50;-0.65;84.81
71297;SHT31;59082;50.658;4.608;2023-02-26T19:28:16;-0.65;84.70
71297;SHT31;59082;50.658;4.608;2023-02-26T19:30:42;-0.58;84.83
71297;SHT31;59082;50.658;4.608;2023-02-26T19:33:07;-0.56;84.29
71297;SHT31;59082;50.658;4.608;2023-02-26T19:35:33;-0.64;84.63
71297;SHT31;59082;50.658;4.608;2023-02-26T19:37:59;-0.64;84.79
71297;SHT31;59082;50.658;4.608;2023-02-26T19:40:25;-0.70;85.40
71297;SHT31;59082;50.658;4.608;2023-02-26T19:42:53;-0.62;85.17
71297;SHT31;59082;50.658;4.608;2023-02-26T19:45:19;-0.76;85.14
71297;SHT31;59082;50.658;4.608;2023-02-26T19:47:44;-0.66;85.48
71297;SHT31;59082;50.658;4.608;2023-02-26T19:50:11;-0.82;85.67
71297;SHT31;59082;50.658;4.608;2023-02-26T19:52:38;-0.82;86.16
71297;SHT31;59082;50.658;4.608;2023-02-26T19:55:05;-0.82;86.21
71297;SHT31;59082;50.658;4.608;2023-02-26T19:57:31;-0.77;86.32
71297;SHT31;59082;50.658;4.608;2023-02-26T19:59:56;-0.75;86.55
71297;SHT31;59082;50.658;4.608;2023-02-26T20:02:24;-0.93;86.69
71297;SHT31;59082;50.658;4.608;2023-02-26T20:04:49;-0.83;86.65
71297;SHT31;59082;50.658;4.608;2023-02-26T20:07:15;-0.55;85.76
71297;SHT31;59082;50.658;4.608;2023-02-26T20:09:40;-0.64;85.99
71297;SHT31;59082;50.658;4.608;2023-02-26T20:12:06;-0.54;85.82
71297;SHT31;59082;50.658;4.608;2023-02-26T20:14:32;-0.54;86.46
71297;SHT31;59082;50.658;4.608;2023-02-26T20:16:58;-0.65;86.35
71297;SHT31;59082;50.658;4.608;2023-02-26T20:19:23;-0.77;86.49
71297;SHT31;59082;50.658;4.608;2023-02-26T20:21:49;-0.90;86.73
71297;SHT31;59082;50.658;4.608;2023-02-26T20:24:15;-0.73;86.71
71297;SHT31;59082;50.658;4.608;2023-02-26T20:26:41;-0.62;86.93
71297;SHT31;59082;50.658;4.608;2023-02-26T20:29:09;-0.87;87.11
71297;SHT31;59082;50.658;4.608;2023-02-26T20:31:34;-0.82;86.89
71297;SHT31;59082;50.658;4.608;2023-02-26T20:34:00;-0.90;87.19
71297;SHT31;59082;50.658;4.608;2023-02-26T20:36:25;-0.89;87.58
71297;SHT31;59082;50.658;4.608;2023-02-26T20:38:51;-0.83;87.37
71297;SHT31;59082;50.658;4.608;2023-02-26T20:41:18;-0.77;86.99
71297;SHT31;59082;50.658;4.608;2023-02-26T20:43:44;-0.97;87.84
71297;SHT31;59082;50.658;4.608;2023-02-26T20:46:09;-0.99;88.11
71297;SHT31;59082;50.658;4.608;2023-02-26T20:48:35;-0.83;88.46
71297;SHT31;59082;50.658;4.608;2023-02-26T20:51:06;-0.90;87.68
71297;SHT31;59082;50.658;4.608;2023-02-26T20:53:33;-0.97;87.99
71297;SHT31;59082;50.658;4.608;2023-02-26T20:55:58;-0.85;87.68
71297;SHT31;59082;50.658;4.608;2023-02-26T20:58:24;-1.01;87.87
71297;SHT31;59082;50.658;4.608;2023-02-26T21:00:54;-0.76;87.86
71297;SHT31;59082;50.658;4.608;2023-02-26T21:03:19;-1.01;88.15
71297;SHT31;59082;50.658;4.608;2023-02-26T21:05:45;-0.99;88.47
71297;SHT31;59082;50.658;4.608;2023-02-26T21:08:11;-0.83;88.48
71297;SHT31;59082;50.658;4.608;2023-02-26T21:10:38;-0.73;88.47
71297;SHT31;59082;50.658;4.608;2023-02-26T21:13:05;-0.89;88.25
71297;SHT31;59082;50.658;4.608;2023-02-26T21:15:31;-0.56;88.12
71297;SHT31;59082;50.658;4.608;2023-02-26T21:17:57;-0.68;88.21
71297;SHT31;59082;50.658;4.608;2023-02-26T21:20:22;-0.58;88.09
71297;SHT31;59082;50.658;4.608;2023-02-26T21:22:48;-0.62;87.57
71297;SHT31;59082;50.658;4.608;2023-02-26T21:25:13;-0.48;87.83
71297;SHT31;59082;50.658;4.608;2023-02-26T21:27:39;-0.58;87.67
71297;SHT31;59082;50.658;4.608;2023-02-26T21:30:06;-0.72;87.86
71297;SHT31;59082;50.658;4.608;2023-02-26T21:32:34;-0.72;88.10
71297;SHT31;59082;50.658;4.608;2023-02-26T21:34:59;-0.70;88.20
71297;SHT31;59082;50.658;4.608;2023-02-26T21:37:25;-0.66;88.20
71297;SHT31;59082;50.658;4.608;2023-02-26T21:39:51;-0.62;88.03
71297;SHT31;59082;50.658;4.608;2023-02-26T21:42:17;-0.59;88.00
71297;SHT31;59082;50.658;4.608;2023-02-26T21:44:43;-0.62;88.12
71297;SHT31;59082;50.658;4.608;2023-02-26T21:47:09;-0.56;87.94
71297;SHT31;59082;50.658;4.608;2023-02-26T21:49:35;-0.65;88.08
71297;SHT31;59082;50.658;4.608;2023-02-26T21:52:03;-0.65;88.64
71297;SHT31;59082;50.658;4.608;2023-02-26T21:54:29;-0.89;88.83
71297;SHT31;59082;50.658;4.608;2023-02-26T21:56:54;-1.07;89.65
71297;SHT31;59082;50.658;4.608;2023-02-26T21:59:21;-1.17;89.93
71297;SHT31;59082;50.658;4.608;2023-02-26T22:01:48;-1.17;90.23
71297;SHT31;59082;50.658;4.608;2023-02-26T22:04:13;-1.04;89.91
71297;SHT31;59082;50.658;4.608;2023-02-26T22:06:39;-1.05;90.32
71297;SHT31;59082;50.658;4.608;2023-02-26T22:09:05;-0.94;90.69
71297;SHT31;59082;50.658;4.608;2023-02-26T22:11:30;-0.99;90.77
71297;SHT31;59082;50.658;4.608;2023-02-26T22:13:56;-0.79;90.37
71297;SHT31;59082;50.658;4.608;2023-02-26T22:16:22;-0.80;90.32
71297;SHT31;59082;50.658;4.608;2023-02-26T22:18:47;-0.73;90.44
71297;SHT31;59082;50.658;4.608;2023-02-26T22:21:13;-0.69;90.74
71297;SHT31;59082;50.658;4.608;2023-02-26T22:23:40;-0.73;90.83
71297;SHT31;59082;50.658;4.608;2023-02-26T22:26:05;-0.73;91.03
71297;SHT31;59082;50.658;4.608;2023-02-26T22:28:31;-0.61;91.14
71297;SHT31;59082;50.658;4.608;2023-02-26T22:30:58;-0.66;91.02
71297;SHT31;59082;50.658;4.608;2023-02-26T22:33:24;-0.80;91.28
71297;SHT31;59082;50.658;4.608;2023-02-26T22:35:53;-0.92;91.92
71297;SHT31;59082;50.658;4.608;2023-02-26T22:38:19;-0.83;91.90
71297;SHT31;59082;50.658;4.608;2023-02-26T22:40:45;-0.93;92.64
71297;SHT31;59082;50.658;4.608;2023-02-26T22:43:11;-0.92;93.17
71297;SHT31;59082;50.658;4.608;2023-02-26T22:45:37;-1.07;93.27
71297;SHT31;59082;50.658;4.608;2023-02-26T22:48:02;-1.18;93.61
71297;SHT31;59082;50.658;4.608;2023-02-26T22:50:28;-1.23;93.72
71297;SHT31;59082;50.658;4.608;2023-02-26T22:52:53;-1.21;94.01
71297;SHT31;59082;50.658;4.608;2023-02-26T22:55:19;-1.31;94.45
71297;SHT31;59082;50.658;4.608;2023-02-26T22:57:44;-1.27;94.72
71297;SHT31;59082;50.658;4.608;2023-02-26T23:00:13;-1.32;94.95
71297;SHT31;59082;50.658;4.608;2023-02-26T23:02:41;-1.41;95.39
71297;SHT31;59082;50.658;4.608;2023-02-26T23:05:07;-1.24;95.16
71297;SHT31;59082;50.658;4.608;2023-02-26T23:07:34;-1.40;95.32
71297;SHT31;59082;50.658;4.608;2023-02-26T23:10:00;-1.35;95.33
71297;SHT31;59082;50.658;4.608;2023-02-26T23:12:26;-1.37;95.47
71297;SHT31;59082;50.658;4.608;2023-02-26T23:14:51;-1.52;96.05
71297;SHT31;59082;50.658;4.608;2023-02-26T23:17:17;-1.37;96.34
71297;SHT31;59082;50.658;4.608;2023-02-26T23:19:43;-1.41;95.86
71297;SHT31;59082;50.658;4.608;2023-02-26T23:22:08;-1.42;96.47
71297;SHT31;59082;50.658;4.608;2023-02-26T23:24:34;-1.48;96.54
71297;SHT31;59082;50.658;4.608;2023-02-26T23:26:59;-1.40;96.12
71297;SHT31;59082;50.658;4.608;2023-02-26T23:29:25;-1.51;96.54
71297;SHT31;59082;50.658;4.608;2023-02-26T23:31:50;-1.56;96.95
71297;SHT31;59082;50.658;4.608;2023-02-26T23:34:16;-1.80;97.44
71297;SHT31;59082;50.658;4.608;2023-02-26T23:36:41;-1.78;97.91
71297;SHT31;59082;50.658;4.608;2023-02-26T23:39:07;-1.72;97.55
71297;SHT31;59082;50.658;4.608;2023-02-26T23:41:33;-1.52;97.88
71297;SHT31;59082;50.658;4.608;2023-02-26T23:43:59;-1.65;97.48
71297;SHT31;59082;50.658;4.608;2023-02-26T23:46:25;-1.69;97.73
71297;SHT31;59082;50.658;4.608;2023-02-26T23:48:50;-1.73;98.35
71297;SHT31;59082;50.658;4.608;2023-02-26T23:51:16;-1.93;98.78
71297;SHT31;59082;50.658;4.608;2023-02-26T23:53:42;-1.89;99.10
71297;SHT31;59082;50.658;4.608;2023-02-26T23:56:07;-2.03;99.65
71297;SHT31;59082;50.658;4.608;2023-02-26T23:58:33;-2.00;99.59
